Lockney, Texas
Current Conditions -  °F | °C
As of 4:35 AM on Friday 24 Oct 2014 (Local Time) from KPVW Reporting Station
Haze Haze  
Wind Chill: 50°   Ceiling: Unl
Heat Index: 50°   Visibility: 5mi
Dew Point: 49°   Wind: 5mph
Humidity: 97%   Direction: 270°W
Pressure: 30.12"   Gusts: NA
Location:  34.12°N, 101.44°W
Report Text: KPVW 240935Z AUTO 27004KT 5SM BR CLR 10/10 A3012 RMK AO2 T01000095
Loading
Personal Weather Stations






























Interactive Weather Map
Tropical Storm Tracking
New forecast layout! Learn more

10-Day Weather Forecast

Advertisements
Track Severe Weather on mobile